Time;durP1;ratioP1;P1;durP2;ratioP2;P2;SDS_P1;SDS_P2;PMS_P1;PMS_P2;Temp;Humidity;BMP_temperature;BMP_pressure;BME280_temperature;BME280_humidity;BME280_pressure;Samples;Min_cycle;Max_cycle;Signal;HPM_P1;HPM_P2
2021/08/12 04:32:09;;;;;;;7.97;7.10;;;15.50;99.90;;;;;;5296322;23;20509;-80
2021/08/12 04:34:34;;;;;;;9.57;7.53;;;15.50;99.90;;;;;;4937522;29;20433;-82
2021/08/12 04:37:00;;;;;;;8.97;8.07;;;15.60;99.90;;;;;;4938013;29;20185;-80
2021/08/12 04:39:25;;;;;;;12.47;7.40;;;15.60;99.90;;;;;;4957148;29;20235;-81
2021/08/12 04:41:51;;;;;;;9.23;7.57;;;15.60;99.90;;;;;;4951662;29;20563;-80
2021/08/12 04:44:16;;;;;;;8.87;7.00;;;15.60;99.90;;;;;;4951735;29;20204;-80
2021/08/12 04:46:42;;;;;;;13.30;7.70;;;15.70;99.90;;;;;;4956565;29;20185;-78
2021/08/12 04:49:08;;;;;;;9.40;7.90;;;15.70;99.90;;;;;;4955011;28;20187;-79
2021/08/12 04:51:34;;;;;;;9.53;7.93;;;15.70;99.90;;;;;;4956432;28;20196;-80
2021/08/12 04:54:00;;;;;;;11.00;7.50;;;15.80;99.90;;;;;;4947713;28;20690;-80
2021/08/12 04:56:25;;;;;;;8.37;6.90;;;15.80;99.90;;;;;;4940670;29;20446;-80
2021/08/12 04:58:54;;;;;;;8.10;7.40;;;15.90;99.90;;;;;;4950950;29;20197;-79
2021/08/12 05:01:20;;;;;;;8.27;7.47;;;16.00;99.90;;;;;;4955719;28;20886;-78
2021/08/12 05:03:45;;;;;;;12.10;8.57;;;16.10;99.90;;;;;;4952992;29;20444;-81
2021/08/12 05:06:14;;;;;;;11.67;7.73;;;16.10;99.90;;;;;;4933142;29;20192;-79
2021/08/12 05:08:40;;;;;;;10.03;7.10;;;16.30;99.90;;;;;;4949012;28;20208;-80
2021/08/12 05:11:08;;;;;;;9.43;7.93;;;16.40;99.90;;;;;;4929172;29;20882;-80
2021/08/12 05:13:34;;;;;;;8.47;6.90;;;16.50;99.90;;;;;;4920269;29;20224;-80
2021/08/12 05:15:59;;;;;;;7.87;7.07;;;16.60;99.90;;;;;;4941761;29;21064;-81
2021/08/12 05:18:25;;;;;;;11.30;8.67;;;16.70;99.90;;;;;;4936562;29;20174;-80
2021/08/12 05:20:50;;;;;;;9.07;7.10;;;16.70;99.90;;;;;;4952990;29;20219;-81
2021/08/12 05:23:17;;;;;;;8.10;6.70;;;16.90;99.90;;;;;;4955676;29;20201;-81
2021/08/12 05:25:44;;;;;;;8.70;7.80;;;16.90;99.90;;;;;;4928684;28;20193;-78
2021/08/12 05:28:13;;;;;;;9.23;8.30;;;16.90;99.90;;;;;;4948391;29;20965;-80
2021/08/12 05:30:39;;;;;;;9.30;7.30;;;17.00;99.90;;;;;;4948846;28;20440;-80
2021/08/12 05:33:05;;;;;;;9.73;7.47;;;17.00;99.90;;;;;;4946199;28;20457;-80
2021/08/12 05:35:30;;;;;;;8.13;6.90;;;17.10;99.90;;;;;;4944687;29;20212;-80
2021/08/12 05:37:56;;;;;;;10.23;8.00;;;17.20;99.90;;;;;;4954316;29;20196;-81
2021/08/12 05:40:21;;;;;;;10.20;7.60;;;17.30;99.90;;;;;;4945158;29;20744;-80
2021/08/12 05:42:47;;;;;;;10.10;8.03;;;17.70;99.90;;;;;;4954040;29;20239;-80
2021/08/12 05:45:12;;;;;;;10.10;7.67;;;18.10;99.90;;;;;;4951664;29;20192;-80
2021/08/12 05:47:38;;;;;;;9.57;8.27;;;18.50;99.90;;;;;;4938031;29;20220;-80
2021/08/12 05:50:04;;;;;;;8.30;6.90;;;19.00;99.90;;;;;;4938216;29;20176;-79
2021/08/12 05:52:30;;;;;;;8.50;7.60;;;19.40;99.90;;;;;;4957788;29;20208;-80
2021/08/12 05:54:55;;;;;;;14.80;8.20;;;19.70;99.90;;;;;;4956857;29;20428;-80
2021/08/12 05:57:21;;;;;;;8.03;7.23;;;19.90;99.90;;;;;;4940612;29;20192;-81
2021/08/12 05:59:46;;;;;;;10.60;7.47;;;20.30;99.90;;;;;;4956769;29;20180;-80
2021/08/12 06:02:12;;;;;;;13.33;7.63;;;20.40;99.90;;;;;;4953482;29;20252;-81
2021/08/12 06:04:37;;;;;;;10.13;7.23;;;20.40;99.90;;;;;;4957586;29;20188;-81
2021/08/12 06:07:03;;;;;;;10.80;7.40;;;20.30;99.90;;;;;;4948179;29;20216;-78
2021/08/12 06:09:29;;;;;;;11.17;7.80;;;20.20;99.90;;;;;;4949516;29;20239;-80
2021/08/12 06:11:54;;;;;;;9.60;7.60;;;20.10;99.90;;;;;;4945309;29;20248;-80
2021/08/12 06:14:20;;;;;;;8.53;7.10;;;20.00;99.90;;;;;;4956357;29;20185;-80
2021/08/12 06:16:45;;;;;;;8.83;7.83;;;19.90;99.90;;;;;;4953537;29;20197;-80
2021/08/12 06:19:11;;;;;;;10.03;7.33;;;20.00;99.90;;;;;;4951313;29;20661;-81
2021/08/12 06:21:36;;;;;;;13.07;7.70;;;20.30;99.90;;;;;;4951818;29;20286;-80
2021/08/12 06:24:02;;;;;;;12.63;8.67;;;20.60;99.90;;;;;;4955580;29;20188;-78
2021/08/12 06:26:28;;;;;;;15.43;7.30;;;20.90;99.90;;;;;;4946017;29;20722;-80
2021/08/12 06:28:53;;;;;;;9.70;7.83;;;21.10;99.90;;;;;;4952355;29;20196;-79
2021/08/12 06:31:19;;;;;;;13.70;6.80;;;21.50;99.90;;;;;;4955328;29;20240;-80
2021/08/12 06:33:44;;;;;;;11.50;7.13;;;21.90;99.90;;;;;;4937105;29;20180;-80
2021/08/12 06:36:10;;;;;;;14.17;7.80;;;22.30;99.90;;;;;;4957571;29;20173;-80
2021/08/12 06:38:35;;;;;;;12.33;6.83;;;22.50;99.90;;;;;;4948220;29;20596;-81
2021/08/12 06:41:01;;;;;;;11.20;7.67;;;22.60;99.90;;;;;;4951350;29;20205;-81
2021/08/12 06:43:26;;;;;;;17.47;8.63;;;22.80;99.90;;;;;;4950635;29;20216;-80
2021/08/12 06:45:52;;;;;;;9.83;6.90;;;23.10;99.90;;;;;;4956596;29;20181;-81
2021/08/12 06:48:18;;;;;;;14.13;7.93;;;23.40;99.90;;;;;;4952081;29;20704;-80
2021/08/12 06:50:43;;;;;;;16.03;8.07;;;23.90;99.90;;;;;;4939256;29;20702;-79
2021/08/12 06:53:09;;;;;;;10.60;5.90;;;24.40;99.90;;;;;;4935246;29;20182;-81
2021/08/12 06:55:35;;;;;;;12.70;6.60;;;24.70;99.90;;;;;;4951367;29;20263;-81
2021/08/12 06:58:01;;;;;;;9.60;7.83;;;24.90;99.90;;;;;;4953903;29;20261;-80
2021/08/12 07:00:27;;;;;;;11.23;6.77;;;25.20;99.90;;;;;;4941521;29;20441;-79
2021/08/12 07:02:54;;;;;;;13.63;6.50;;;25.50;99.90;;;;;;4936649;29;20548;-80
2021/08/12 07:05:19;;;;;;;14.80;7.60;;;25.40;99.90;;;;;;4943906;29;20493;-80
2021/08/12 07:07:45;;;;;;;9.97;7.83;;;25.50;99.90;;;;;;4954738;29;20416;-79
2021/08/12 07:10:12;;;;;;;10.00;6.27;;;25.20;99.90;;;;;;4946016;29;20177;-82
2021/08/12 07:12:38;;;;;;;11.10;6.87;;;25.20;99.90;;;;;;4943728;29;20247;-81
2021/08/12 07:15:05;;;;;;;11.70;7.30;;;25.20;99.90;;;;;;4950266;28;20436;-80
2021/08/12 07:17:32;;;;;;;10.67;7.40;;;25.40;99.90;;;;;;4954866;28;20204;-82
2021/08/12 07:19:57;;;;;;;11.80;7.00;;;25.80;99.90;;;;;;4953464;28;20432;-81
2021/08/12 07:22:23;;;;;;;15.07;6.70;;;26.00;99.90;;;;;;4948862;29;20482;-79
2021/08/12 07:24:48;;;;;;;32.90;9.07;;;26.20;99.90;;;;;;4947822;28;20184;-81
2021/08/12 07:27:14;;;;;;;11.60;6.77;;;26.20;99.90;;;;;;4939823;29;20220;-81
2021/08/12 07:29:39;;;;;;;13.43;7.07;;;26.40;99.90;;;;;;4950865;29;20227;-82
2021/08/12 07:32:05;;;;;;;12.87;6.77;;;26.70;99.90;;;;;;4928581;29;20232;-81
2021/08/12 07:34:31;;;;;;;16.00;6.40;;;27.10;99.90;;;;;;4945757;29;20255;-81
2021/08/12 07:36:56;;;;;;;14.80;6.70;;;27.30;99.90;;;;;;4949417;29;20195;-81
2021/08/12 07:39:22;;;;;;;11.07;6.70;;;27.50;99.90;;;;;;4954872;29;20957;-81
2021/08/12 07:41:47;;;;;;;11.40;6.33;;;27.60;99.90;;;;;;4943216;29;20239;-81
2021/08/12 07:44:14;;;;;;;7.53;6.50;;;27.60;99.90;;;;;;4950268;29;20572;-81
2021/08/12 07:46:39;;;;;;;12.83;7.00;;;27.80;99.90;;;;;;4950650;28;20181;-82
2021/08/12 07:49:05;;;;;;;10.77;7.00;;;28.00;99.90;;;;;;4954761;28;20415;-81
2021/08/12 07:51:31;;;;;;;10.23;7.20;;;28.30;99.90;;;;;;4944987;29;20225;-81
2021/08/12 07:53:56;;;;;;;12.83;6.93;;;28.30;99.90;;;;;;4950482;29;20264;-81
2021/08/12 07:56:22;;;;;;;10.90;7.30;;;28.40;99.90;;;;;;4937961;29;20726;-80
2021/08/12 07:58:49;;;;;;;7.73;6.40;;;28.50;99.90;;;;;;4916811;29;20189;-80
2021/08/12 08:01:18;;;;;;;7.43;6.17;;;28.60;99.90;;;;;;4924521;29;20203;-81
2021/08/12 08:03:45;;;;;;;12.67;7.10;;;28.70;99.90;;;;;;4952217;28;20480;-80
2021/08/12 08:06:11;;;;;;;7.93;5.97;;;29.00;99.90;;;;;;4956408;28;20816;-81
2021/08/12 08:08:37;;;;;;;12.50;6.13;;;29.10;99.90;;;;;;4954006;29;20432;-82
2021/08/12 08:11:02;;;;;;;11.73;6.70;;;29.00;99.90;;;;;;4953051;29;20204;-80
2021/08/12 08:13:29;;;;;;;8.40;6.60;;;29.00;99.90;;;;;;4952443;29;20185;-81
2021/08/12 08:15:55;;;;;;;9.50;6.87;;;29.30;99.90;;;;;;4957939;28;20268;-82
2021/08/12 08:18:20;;;;;;;11.50;7.47;;;29.30;99.90;;;;;;4955113;29;20479;-81
2021/08/12 08:20:46;;;;;;;8.43;6.60;;;29.40;99.90;;;;;;4958131;29;20571;-81
2021/08/12 08:23:12;;;;;;;7.53;5.47;;;29.60;99.90;;;;;;4936446;29;20213;-81
2021/08/12 08:25:38;;;;;;;15.83;6.93;;;29.80;99.90;;;;;;4940085;29;20655;-82
2021/08/12 08:28:04;;;;;;;7.33;6.50;;;30.00;99.90;;;;;;4943050;29;21021;-81
2021/08/12 08:30:32;;;;;;;6.57;6.00;;;30.40;99.90;;;;;;4956319;28;20417;-80
2021/08/12 08:32:57;;;;;;;8.40;6.23;;;30.70;99.90;;;;;;4945689;28;20997;-83
2021/08/12 08:35:25;;;;;;;7.27;6.57;;;30.90;99.90;;;;;;4955927;29;20505;-79
2021/08/12 08:37:51;;;;;;;10.53;5.90;;;31.00;99.90;;;;;;4950868;28;20181;-82
2021/08/12 08:40:17;;;;;;;8.93;6.20;;;30.80;99.90;;;;;;4937914;29;20459;-81
2021/08/12 08:42:45;;;;;;;9.10;5.97;;;30.70;99.90;;;;;;4951313;29;20504;-78
2021/08/12 08:45:13;;;;;;;9.20;5.20;;;30.70;99.90;;;;;;4949399;29;20181;-81
2021/08/12 08:47:40;;;;;;;10.80;5.43;;;31.00;99.90;;;;;;4955911;28;20416;-82
2021/08/12 08:50:07;;;;;;;7.70;5.60;;;31.20;99.90;;;;;;4940320;28;20436;-80
2021/08/12 08:52:34;;;;;;;9.20;5.67;;;31.40;99.90;;;;;;4935810;29;20433;-80
2021/08/12 08:55:00;;;;;;;8.10;6.43;;;31.30;99.90;;;;;;4925723;29;20441;-80
2021/08/12 08:57:26;;;;;;;6.80;5.83;;;31.30;99.90;;;;;;4940495;29;20765;-80
2021/08/12 08:59:51;;;;;;;11.80;5.70;;;31.20;99.90;;;;;;4949368;28;20236;-80
2021/08/12 09:02:17;;;;;;;13.83;6.80;;;31.70;99.90;;;;;;4954007;29;20215;-80
2021/08/12 09:04:42;;;;;;;14.47;6.13;;;32.10;99.90;;;;;;4951877;29;20184;-78
2021/08/12 09:07:09;;;;;;;10.33;6.00;;;32.30;99.90;;;;;;4947636;29;20188;-80
2021/08/12 09:09:36;;;;;;;6.40;5.80;;;32.50;99.90;;;;;;4945405;28;20189;-81
2021/08/12 09:12:02;;;;;;;6.50;5.93;;;32.50;99.90;;;;;;4937928;29;20554;-81
2021/08/12 09:14:29;;;;;;;7.37;5.27;;;32.50;99.90;;;;;;4951951;28;20451;-81
2021/08/12 09:16:54;;;;;;;7.00;5.40;;;32.20;99.90;;;;;;4950780;29;20444;-81
2021/08/12 09:19:20;;;;;;;12.00;5.23;;;32.50;99.90;;;;;;4960191;29;20412;-81
2021/08/12 09:22:09;;;;;;;7.40;5.73;;;32.60;99.90;;;;;;4953378;28;20225;-80
2021/08/12 09:24:49;;;;;;;6.37;5.27;;;32.50;99.90;;;;;;4958791;28;20448;-81
2021/08/12 09:27:20;;;;;;;5.13;4.73;;;32.80;99.90;;;;;;4938126;29;20987;-81
2021/08/12 09:29:46;;;;;;;8.10;5.73;;;32.80;99.90;;;;;;4955177;28;20856;-81
2021/08/12 09:32:11;;;;;;;7.07;5.70;;;32.90;99.90;;;;;;4933188;29;20556;-80
2021/08/12 09:34:41;;;;;;;7.30;5.47;;;32.70;99.90;;;;;;4950211;29;20563;-81
2021/08/12 09:37:07;;;;;;;5.00;4.50;;;32.40;99.90;;;;;;4945345;29;20243;-80
2021/08/12 09:39:34;;;;;;;8.30;5.47;;;32.50;99.90;;;;;;4955490;28;20420;-80
2021/08/12 09:42:00;;;;;;;6.00;5.40;;;32.40;99.90;;;;;;4950757;28;20471;-81
2021/08/12 09:44:33;;;;;;;10.90;5.43;;;32.20;99.90;;;;;;4953194;29;20435;-79
2021/08/12 09:47:00;;;;;;;6.30;4.97;;;32.10;99.90;;;;;;4950473;28;20212;-79
2021/08/12 09:49:34;;;;;;;8.33;5.30;;;32.50;99.90;;;;;;4956984;28;20841;-80
2021/08/12 09:51:59;;;;;;;5.73;5.00;;;32.30;99.90;;;;;;4951008;28;20456;-81
2021/08/12 09:54:29;;;;;;;5.50;5.00;;;32.00;99.90;;;;;;4954544;29;20424;-80
2021/08/12 09:56:55;;;;;;;5.17;4.70;;;32.20;99.90;;;;;;4943618;28;20711;-80
2021/08/12 09:59:20;;;;;;;4.83;4.43;;;32.50;99.90;;;;;;4935851;29;20424;-81
2021/08/12 10:01:46;;;;;;;5.10;4.70;;;32.50;99.90;;;;;;4933404;29;20473;-80
2021/08/12 10:04:24;;;;;;;9.80;5.30;;;32.80;99.90;;;;;;4949637;29;20224;-81
2021/08/12 10:06:50;;;;;;;7.50;4.70;;;33.10;99.90;;;;;;4956098;28;20726;-81
2021/08/12 10:09:16;;;;;;;7.40;5.40;;;32.90;99.90;;;;;;4951588;29;20452;-81
2021/08/12 10:11:42;;;;;;;6.33;5.47;;;33.10;99.90;;;;;;4950945;28;20626;-80
2021/08/12 10:14:09;;;;;;;12.27;5.00;;;32.70;99.90;;;;;;4950883;28;20451;-80
2021/08/12 10:16:36;;;;;;;5.83;4.70;;;32.60;99.90;;;;;;4955479;28;20924;-81
2021/08/12 10:19:05;;;;;;;4.83;4.33;;;32.70;99.90;;;;;;4945948;28;20440;-81
2021/08/12 10:21:36;;;;;;;10.03;4.53;;;33.00;99.90;;;;;;4955009;28;20506;-81
2021/08/12 10:24:02;;;;;;;5.17;4.67;;;33.20;99.90;;;;;;4951410;28;20444;-80
2021/08/12 10:26:30;;;;;;;5.07;4.57;;;33.60;99.90;;;;;;4950392;29;20506;-80
2021/08/12 10:29:02;;;;;;;5.50;5.10;;;33.70;99.90;;;;;;4936182;28;20248;-81
2021/08/12 10:31:29;;;;;;;7.33;6.27;;;34.00;99.90;;;;;;4953328;29;20503;-80
2021/08/12 10:33:58;;;;;;;5.57;4.60;;;34.50;99.90;;;;;;4948344;28;20447;-81
2021/08/12 10:36:24;;;;;;;5.17;4.70;;;34.50;99.90;;;;;;4950206;29;20519;-80
2021/08/12 10:38:51;;;;;;;5.50;5.00;;;34.90;99.90;;;;;;4951322;28;20946;-80
2021/08/12 10:41:18;;;;;;;6.93;4.77;;;35.00;99.90;;;;;;4928068;28;20539;-81
2021/08/12 10:43:46;;;;;;;5.60;4.77;;;34.90;99.90;;;;;;4948782;29;20443;-80
2021/08/12 10:46:12;;;;;;;8.63;5.37;;;34.90;99.90;;;;;;4955872;29;20408;-81
2021/08/12 10:48:37;;;;;;;7.90;4.97;;;34.90;99.90;;;;;;4954442;28;20483;-81
2021/08/12 10:51:11;;;;;;;6.43;5.87;;;35.10;99.90;;;;;;4933722;29;20685;-79
2021/08/12 10:53:44;;;;;;;9.80;5.17;;;35.30;99.90;;;;;;4955581;28;20550;-82
2021/08/12 10:56:15;;;;;;;6.90;5.80;;;35.00;99.90;;;;;;4924627;28;20441;-80
2021/08/12 10:58:43;;;;;;;5.90;5.40;;;34.20;99.90;;;;;;4947586;28;20427;-81
2021/08/12 11:01:14;;;;;;;6.07;5.57;;;33.40;99.90;;;;;;4946741;28;20484;-81
2021/08/12 11:03:45;;;;;;;6.13;5.60;;;33.20;99.90;;;;;;4956906;28;20813;-81
2021/08/12 11:06:16;;;;;;;6.40;5.80;;;33.30;99.90;;;;;;4951405;28;20464;-80
2021/08/12 11:08:54;;;;;;;7.80;5.80;;;33.40;99.90;;;;;;4955937;29;20416;-81
2021/08/12 11:11:22;;;;;;;8.07;5.97;;;33.30;99.90;;;;;;4936824;28;20459;-80
2021/08/12 11:13:49;;;;;;;8.10;5.50;;;33.20;99.90;;;;;;4955777;29;20463;-81
2021/08/12 11:16:16;;;;;;;5.03;4.60;;;33.20;99.90;;;;;;4933029;28;20442;-80
2021/08/12 11:18:47;;;;;;;6.00;5.50;;;33.20;99.90;;;;;;4917506;29;20414;-80
2021/08/12 11:21:39;;;;;;;6.07;5.60;;;33.10;99.90;;;;;;4932493;29;20456;-79
2021/08/12 11:24:09;;;;;;;6.53;5.93;;;32.70;99.90;;;;;;4916892;29;20424;-80
2021/08/12 11:26:41;;;;;;;9.43;5.80;;;32.70;99.90;;;;;;4921596;29;20489;-81
2021/08/12 11:29:30;;;;;;;6.43;5.83;;;32.40;99.90;;;;;;4954686;28;20409;-80
2021/08/12 11:32:10;;;;;;;8.27;7.47;;;32.00;99.90;;;;;;4937294;28;20479;-80
2021/08/12 11:34:52;;;;;;;5.77;5.17;;;32.10;99.90;;;;;;4938241;29;20461;-80
2021/08/12 11:37:22;;;;;;;6.17;5.60;;;32.20;99.90;;;;;;4953308;28;20444;-80
2021/08/12 11:39:59;;;;;;;5.83;5.33;;;32.20;99.90;;;;;;4959246;28;20424;-81
2021/08/12 11:42:44;;;;;;;5.57;5.17;;;32.20;99.90;;;;;;4946808;29;20475;-80
2021/08/12 11:45:13;;;;;;;9.83;6.13;;;31.90;99.90;;;;;;4958562;28;20512;-81
2021/08/12 11:47:41;;;;;;;6.60;5.90;;;31.60;99.90;;;;;;4956585;28;20436;-81
2021/08/12 11:50:13;;;;;;;5.60;5.10;;;31.50;99.90;;;;;;4959073;28;20413;-80
2021/08/12 11:52:46;;;;;;;6.50;5.90;;;31.50;99.90;;;;;;4952965;28;20464;-81
2021/08/12 11:55:14;;;;;;;5.77;5.27;;;31.60;99.90;;;;;;4942211;29;20444;-81
2021/08/12 11:57:50;;;;;;;8.93;6.20;;;31.70;99.90;;;;;;4945925;28;20975;-80
2021/08/12 12:00:29;;;;;;;12.10;7.40;;;31.70;99.90;;;;;;4957858;28;20439;-81
2021/08/12 12:02:58;;;;;;;6.80;6.30;;;31.90;99.90;;;;;;4954431;28;20471;-80
2021/08/12 12:05:28;;;;;;;8.37;5.60;;;32.20;99.90;;;;;;4950379;29;20444;-79
2021/08/12 12:08:05;;;;;;;6.30;5.73;;;32.60;99.90;;;;;;4954276;28;20488;-81
2021/08/12 12:10:36;;;;;;;6.97;5.77;;;32.60;99.90;;;;;;4957209;28;20828;-80
2021/08/12 12:13:21;;;;;;;7.50;6.50;;;32.40;99.90;;;;;;4939376;29;20447;-81
2021/08/12 12:15:54;;;;;;;7.80;5.90;;;32.20;99.90;;;;;;4950332;28;20440;-81
2021/08/12 12:18:31;;;;;;;7.90;5.80;;;32.10;99.90;;;;;;4945108;28;20930;-81
2021/08/12 12:21:16;;;;;;;7.67;6.30;;;32.10;99.90;;;;;;4918353;29;20456;-81
2021/08/12 12:23:44;;;;;;;6.57;5.90;;;32.50;99.90;;;;;;4929047;29;20468;-81
2021/08/12 12:26:24;;;;;;;6.17;5.50;;;32.70;99.90;;;;;;4937224;28;20450;-81
2021/08/12 12:28:50;;;;;;;6.73;6.17;;;32.90;99.90;;;;;;4941381;28;20855;-81
2021/08/12 12:31:21;;;;;;;7.30;6.60;;;33.00;99.90;;;;;;4955474;28;20448;-81
2021/08/12 12:34:01;;;;;;;6.87;6.10;;;32.80;99.90;;;;;;4953139;28;20261;-80
2021/08/12 12:36:28;;;;;;;6.63;5.93;;;32.70;99.90;;;;;;4924135;28;20438;-80
2021/08/12 12:38:54;;;;;;;6.03;5.43;;;32.60;99.90;;;;;;4919841;29;20436;-81
2021/08/12 12:41:22;;;;;;;6.87;6.27;;;32.30;99.90;;;;;;4936412;29;20461;-81
2021/08/12 12:43:48;;;;;;;7.33;6.67;;;32.20;99.90;;;;;;4954974;28;20181;-81
2021/08/12 12:46:29;;;;;;;7.13;6.53;;;32.10;99.90;;;;;;4926608;29;20440;-81
2021/08/12 12:48:54;;;;;;;8.37;6.73;;;32.30;99.90;;;;;;4941540;29;20174;-80
2021/08/12 12:51:26;;;;;;;7.83;6.90;;;32.10;99.90;;;;;;4927605;29;20512;-82
2021/08/12 12:53:51;;;;;;;6.80;6.10;;;32.20;99.90;;;;;;4917484;29;20178;-81
2021/08/12 12:56:25;;;;;;;6.70;6.20;;;32.10;99.90;;;;;;4935563;29;20449;-81
2021/08/12 12:58:52;;;;;;;6.20;5.60;;;32.10;99.90;;;;;;4941438;29;20794;-81
2021/08/12 13:01:22;;;;;;;9.83;6.23;;;32.20;99.90;;;;;;4939937;29;20986;-81
2021/08/12 13:03:59;;;;;;;6.70;6.20;;;32.00;99.90;;;;;;4937246;29;20421;-81
2021/08/12 13:06:42;;;;;;;7.43;6.70;;;31.80;99.90;;;;;;4939758;29;20437;-81
2021/08/12 13:09:27;;;;;;;7.00;6.30;;;31.80;99.90;;;;;;4955766;29;20936;-81
2021/08/12 13:11:53;;;;;;;6.83;6.33;;;31.70;99.90;;;;;;4935311;28;20460;-82
2021/08/12 13:14:18;;;;;;;9.33;8.53;;;31.80;99.90;;;;;;4935700;29;20417;-82
2021/08/12 13:16:49;;;;;;;7.53;6.93;;;31.90;99.90;;;;;;4941563;29;20216;-81
2021/08/12 13:19:23;;;;;;;6.10;5.60;;;31.80;99.90;;;;;;4936619;29;20190;-82
2021/08/12 13:21:51;;;;;;;9.20;7.00;;;31.80;99.90;;;;;;4940696;29;20468;-81
2021/08/12 13:24:20;;;;;;;8.60;7.20;;;31.80;99.90;;;;;;4928711;28;20447;-82
2021/08/12 13:26:59;;;;;;;7.10;6.37;;;31.90;99.90;;;;;;4937757;29;20955;-81
2021/08/12 13:29:29;;;;;;;7.13;6.40;;;31.90;99.90;;;;;;4951662;29;20455;-81
2021/08/12 13:32:07;;;;;;;9.37;6.30;;;31.90;99.90;;;;;;4949597;28;20504;-82
2021/08/12 13:34:34;;;;;;;7.40;6.70;;;31.90;99.90;;;;;;4955060;28;20416;-82
2021/08/12 13:37:01;;;;;;;7.23;6.50;;;31.70;99.90;;;;;;4949977;28;20436;-82
2021/08/12 13:39:27;;;;;;;6.40;5.80;;;31.40;99.90;;;;;;4948903;28;20953;-80
2021/08/12 13:42:01;;;;;;;7.10;6.50;;;31.20;99.90;;;;;;4944555;28;20465;-81
2021/08/12 13:44:28;;;;;;;6.27;5.67;;;31.10;99.90;;;;;;4953389;29;20467;-80
2021/08/12 13:46:55;;;;;;;11.63;6.70;;;31.20;99.90;;;;;;4952483;28;20809;-81
2021/08/12 13:49:22;;;;;;;7.00;6.30;;;31.20;99.90;;;;;;4934915;29;20544;-81
2021/08/12 13:51:50;;;;;;;7.37;6.50;;;31.20;99.90;;;;;;4955581;28;20474;-81
2021/08/12 13:54:16;;;;;;;6.50;5.70;;;31.30;99.90;;;;;;4953236;28;20800;-82
2021/08/12 13:56:42;;;;;;;8.70;6.17;;;31.40;99.90;;;;;;4948795;28;20439;-81
2021/08/12 13:59:08;;;;;;;6.60;6.10;;;31.30;99.90;;;;;;4948824;28;20436;-81
2021/08/12 14:01:34;;;;;;;6.93;6.10;;;31.20;99.90;;;;;;4954542;28;20253;-81
2021/08/12 14:04:00;;;;;;;8.23;6.37;;;31.30;99.90;;;;;;4948120;29;20192;-81
2021/08/12 14:06:26;;;;;;;7.43;6.17;;;31.30;99.90;;;;;;4955542;28;20173;-81
2021/08/12 14:08:52;;;;;;;7.23;6.53;;;31.20;99.90;;;;;;4935652;28;20438;-81
2021/08/12 14:11:18;;;;;;;7.00;6.27;;;31.10;99.90;;;;;;4945141;29;20750;-81
2021/08/12 14:13:44;;;;;;;6.67;5.97;;;31.20;99.90;;;;;;4948416;28;20192;-79
2021/08/12 14:16:10;;;;;;;8.90;6.70;;;31.00;99.90;;;;;;4949169;28;20531;-81
2021/08/12 14:18:41;;;;;;;6.73;6.10;;;30.90;99.90;;;;;;4949158;29;20517;-81
2021/08/12 14:21:16;;;;;;;8.13;7.23;;;30.80;99.90;;;;;;4949665;28;20210;-81
2021/08/12 14:23:43;;;;;;;6.87;6.20;;;30.90;99.90;;;;;;4945832;29;20487;-81
2021/08/12 14:26:10;;;;;;;8.10;6.57;;;30.90;99.90;;;;;;4949076;29;20442;-81
2021/08/12 14:28:36;;;;;;;6.50;5.50;;;31.00;99.90;;;;;;4954646;29;20420;-81
2021/08/12 14:31:03;;;;;;;6.87;6.27;;;30.90;99.90;;;;;;4927020;29;20528;-81
2021/08/12 14:33:30;;;;;;;9.13;6.17;;;30.90;99.90;;;;;;4935526;29;20185;-81
2021/08/12 14:36:00;;;;;;;7.77;6.77;;;31.00;99.90;;;;;;4947888;29;21016;-82
2021/08/12 14:38:27;;;;;;;7.17;6.43;;;31.00;99.90;;;;;;4954502;28;20448;-80
2021/08/12 14:40:52;;;;;;;7.57;6.97;;;31.00;99.90;;;;;;4942487;28;20468;-81
2021/08/12 14:43:18;;;;;;;8.20;7.40;;;31.00;99.90;;;;;;4924945;29;20469;-81
2021/08/12 14:45:43;;;;;;;9.80;8.90;;;30.80;99.90;;;;;;4941894;29;20653;-79
2021/08/12 14:48:09;;;;;;;6.97;6.27;;;30.70;99.90;;;;;;4954016;29;20199;-81
2021/08/12 14:50:34;;;;;;;7.90;6.40;;;30.70;99.90;;;;;;4951268;29;20231;-81
2021/08/12 14:53:00;;;;;;;7.03;6.23;;;30.60;99.90;;;;;;4918016;29;20197;-81
2021/08/12 14:55:25;;;;;;;7.07;6.37;;;30.50;99.90;;;;;;4916139;29;20614;-80
2021/08/12 14:57:51;;;;;;;7.43;6.03;;;30.50;99.90;;;;;;4944235;29;20199;-81
2021/08/12 15:00:17;;;;;;;6.93;6.30;;;30.50;99.90;;;;;;4952770;29;20259;-81
2021/08/12 15:02:42;;;;;;;7.97;7.17;;;30.40;99.90;;;;;;4943157;29;20302;-79
2021/08/12 15:05:08;;;;;;;7.93;6.67;;;30.30;99.90;;;;;;4954249;29;20173;-81
2021/08/12 15:07:34;;;;;;;9.10;6.70;;;30.20;99.90;;;;;;4940682;28;20180;-79
2021/08/12 15:10:00;;;;;;;8.17;6.27;;;30.10;99.90;;;;;;4958612;28;21059;-81
2021/08/12 15:12:25;;;;;;;6.60;6.00;;;30.10;99.90;;;;;;4941166;29;20234;-80
2021/08/12 15:14:51;;;;;;;10.93;6.33;;;30.10;99.90;;;;;;4939255;29;20718;-80
2021/08/12 15:17:16;;;;;;;7.10;6.40;;;30.00;99.90;;;;;;4944431;29;20562;-80
2021/08/12 15:19:42;;;;;;;6.93;6.37;;;30.00;99.90;;;;;;4957077;29;20180;-81
2021/08/12 15:22:08;;;;;;;6.73;6.10;;;29.90;99.90;;;;;;4953355;29;20208;-78
2021/08/12 15:24:34;;;;;;;9.20;6.90;;;29.90;99.90;;;;;;4926265;29;20182;-79
2021/08/12 15:26:59;;;;;;;9.33;6.70;;;29.90;99.90;;;;;;4938566;29;20186;-80
2021/08/12 15:29:25;;;;;;;7.57;6.53;;;29.90;99.90;;;;;;4957812;29;20613;-80
2021/08/12 15:31:50;;;;;;;7.37;6.30;;;29.90;99.90;;;;;;4953738;29;20229;-81
2021/08/12 15:34:16;;;;;;;7.00;6.33;;;29.80;99.90;;;;;;4953450;29;20196;-80
2021/08/12 15:36:42;;;;;;;7.20;6.50;;;29.80;99.90;;;;;;4958010;29;20177;-78
2021/08/12 15:39:07;;;;;;;8.60;6.40;;;29.70;99.90;;;;;;4956714;29;20188;-80
2021/08/12 15:41:33;;;;;;;9.67;6.30;;;29.70;99.90;;;;;;4952467;29;20639;-81
2021/08/12 15:43:58;;;;;;;6.77;6.00;;;29.70;99.90;;;;;;4949690;29;20232;-80
2021/08/12 15:46:24;;;;;;;6.70;5.97;;;29.60;99.90;;;;;;4956638;29;20177;-78
2021/08/12 15:48:49;;;;;;;6.97;5.87;;;29.60;99.90;;;;;;4952017;29;20192;-80
2021/08/12 15:51:15;;;;;;;11.13;5.70;;;29.60;99.90;;;;;;4957745;29;20201;-81
2021/08/12 15:53:42;;;;;;;6.80;6.10;;;29.60;99.90;;;;;;4952681;29;20243;-81
2021/08/12 15:56:08;;;;;;;6.33;5.73;;;29.60;99.90;;;;;;4951772;29;20212;-81
2021/08/12 15:58:38;;;;;;;6.90;6.20;;;29.60;99.90;;;;;;4945637;29;20441;-80
2021/08/12 16:01:04;;;;;;;8.80;6.73;;;29.60;99.90;;;;;;4938235;29;20439;-80
2021/08/12 16:03:29;;;;;;;6.40;5.57;;;29.60;99.90;;;;;;4934534;29;20473;-80
2021/08/12 16:05:55;;;;;;;8.97;5.80;;;29.50;99.90;;;;;;4944960;29;20440;-80
2021/08/12 16:08:20;;;;;;;8.23;6.50;;;29.50;99.90;;;;;;4953100;29;20184;-80
2021/08/12 16:10:47;;;;;;;7.03;6.30;;;29.40;99.90;;;;;;4956607;29;20235;-80
2021/08/12 16:13:13;;;;;;;8.10;6.10;;;29.40;99.90;;;;;;4950209;28;20200;-81
2021/08/12 16:15:39;;;;;;;8.90;5.80;;;29.30;99.90;;;;;;4947587;29;20470;-80
2021/08/12 16:18:05;;;;;;;5.67;5.17;;;29.30;99.90;;;;;;4955639;28;20449;-79
2021/08/12 16:20:32;;;;;;;7.20;5.57;;;29.30;99.90;;;;;;4948855;28;20503;-78
2021/08/12 16:22:58;;;;;;;8.73;5.63;;;29.30;99.90;;;;;;4955537;28;20205;-80
2021/08/12 16:25:23;;;;;;;5.97;5.40;;;29.30;99.90;;;;;;4937635;29;20466;-79
2021/08/12 16:27:49;;;;;;;6.83;5.73;;;29.20;99.90;;;;;;4950117;29;20193;-79
2021/08/12 16:30:15;;;;;;;7.60;6.10;;;29.20;99.90;;;;;;4940415;28;20453;-80
2021/08/12 16:32:41;;;;;;;7.37;5.00;;;29.10;99.90;;;;;;4955371;29;20619;-79
2021/08/12 16:35:07;;;;;;;7.10;5.80;;;29.10;99.90;;;;;;4947660;28;20450;-80
2021/08/12 16:37:33;;;;;;;6.03;5.43;;;29.10;99.90;;;;;;4949562;29;20192;-80
2021/08/12 16:39:59;;;;;;;6.47;5.87;;;29.00;99.90;;;;;;4950283;28;20441;-79
2021/08/12 16:42:24;;;;;;;10.23;5.80;;;29.00;99.90;;;;;;4937204;29;20472;-79
2021/08/12 16:44:50;;;;;;;7.97;6.50;;;28.90;99.90;;;;;;4936882;29;20186;-79
2021/08/12 16:47:15;;;;;;;6.00;5.50;;;28.90;99.90;;;;;;4934522;29;20283;-81
2021/08/12 16:49:41;;;;;;;7.17;6.20;;;28.80;99.90;;;;;;4955987;29;20600;-80
2021/08/12 16:52:07;;;;;;;12.47;6.83;;;28.70;99.90;;;;;;4953536;29;20244;-78
2021/08/12 16:54:32;;;;;;;6.87;5.27;;;28.60;99.90;;;;;;4956185;29;20184;-79
2021/08/12 16:56:58;;;;;;;7.23;5.90;;;28.60;99.90;;;;;;4940405;28;20201;-80
2021/08/12 16:59:23;;;;;;;10.43;5.90;;;28.50;99.90;;;;;;4935108;29;20268;-79
2021/08/12 17:01:49;;;;;;;7.50;5.50;;;28.50;99.90;;;;;;4940788;29;20637;-80
2021/08/12 17:04:14;;;;;;;6.40;4.93;;;28.50;99.90;;;;;;4955845;29;20177;-80
2021/08/12 17:06:40;;;;;;;6.53;5.93;;;28.50;99.90;;;;;;4952611;29;20176;-80
2021/08/12 17:09:05;;;;;;;8.60;7.70;;;28.50;99.90;;;;;;4948386;29;20288;-79
2021/08/12 17:11:31;;;;;;;6.10;5.23;;;28.50;99.90;;;;;;4951197;29;20213;-79
2021/08/12 17:13:56;;;;;;;9.10;5.50;;;28.50;99.90;;;;;;4955519;29;20182;-79
2021/08/12 17:16:22;;;;;;;8.67;5.70;;;28.50;99.90;;;;;;4954162;29;20181;-79
2021/08/12 17:18:48;;;;;;;6.10;5.50;;;28.50;99.90;;;;;;4942082;29;20619;-80